sensor_id;sensor_type;location;lat;lon;timestamp;P1;durP1;ratioP1;P2;durP2;ratioP2
44774;SDS011;31340;51.402;0.016;2023-05-18T00:02:23;16.35;;;5.10;;
44774;SDS011;31340;51.402;0.016;2023-05-18T00:04:52;15.63;;;5.32;;
44774;SDS011;31340;51.402;0.016;2023-05-18T00:07:20;16.65;;;5.47;;
44774;SDS011;31340;51.402;0.016;2023-05-18T00:09:48;14.95;;;4.93;;
44774;SDS011;31340;51.402;0.016;2023-05-18T00:12:16;11.98;;;4.38;;
44774;SDS011;31340;51.402;0.016;2023-05-18T00:14:43;19.27;;;5.30;;
44774;SDS011;31340;51.402;0.016;2023-05-18T00:17:11;15.95;;;4.07;;
44774;SDS011;31340;51.402;0.016;2023-05-18T00:19:40;15.98;;;5.38;;
44774;SDS011;31340;51.402;0.016;2023-05-18T00:22:09;15.07;;;4.63;;
44774;SDS011;31340;51.402;0.016;2023-05-18T00:24:38;17.35;;;4.72;;
44774;SDS011;31340;51.402;0.016;2023-05-18T00:27:05;11.35;;;4.10;;
44774;SDS011;31340;51.402;0.016;2023-05-18T00:29:33;12.85;;;5.35;;
44774;SDS011;31340;51.402;0.016;2023-05-18T00:32:00;15.25;;;4.95;;
44774;SDS011;31340;51.402;0.016;2023-05-18T00:34:29;16.65;;;4.45;;
44774;SDS011;31340;51.402;0.016;2023-05-18T00:36:57;16.67;;;4.55;;
44774;SDS011;31340;51.402;0.016;2023-05-18T00:39:24;16.67;;;4.22;;
44774;SDS011;31340;51.402;0.016;2023-05-18T00:41:52;15.68;;;4.68;;
44774;SDS011;31340;51.402;0.016;2023-05-18T00:44:20;12.82;;;4.25;;
44774;SDS011;31340;51.402;0.016;2023-05-18T00:46:47;17.38;;;4.57;;
44774;SDS011;31340;51.402;0.016;2023-05-18T00:49:16;12.60;;;4.60;;
44774;SDS011;31340;51.402;0.016;2023-05-18T00:51:44;17.00;;;4.95;;
44774;SDS011;31340;51.402;0.016;2023-05-18T00:54:12;12.80;;;4.20;;
44774;SDS011;31340;51.402;0.016;2023-05-18T00:56:41;12.50;;;4.07;;
44774;SDS011;31340;51.402;0.016;2023-05-18T00:59:12;11.00;;;4.30;;
44774;SDS011;31340;51.402;0.016;2023-05-18T01:01:41;15.85;;;4.78;;
44774;SDS011;31340;51.402;0.016;2023-05-18T01:04:12;16.02;;;5.63;;
44774;SDS011;31340;51.402;0.016;2023-05-18T01:06:41;14.00;;;5.00;;
44774;SDS011;31340;51.402;0.016;2023-05-18T01:09:09;13.80;;;4.47;;
44774;SDS011;31340;51.402;0.016;2023-05-18T01:14:17;12.07;;;4.13;;
44774;SDS011;31340;51.402;0.016;2023-05-18T01:20:18;13.45;;;3.95;;
44774;SDS011;31340;51.402;0.016;2023-05-18T01:28:28;13.93;;;4.43;;
44774;SDS011;31340;51.402;0.016;2023-05-18T01:33:27;15.70;;;4.28;;
44774;SDS011;31340;51.402;0.016;2023-05-18T01:35:54;16.83;;;4.53;;
44774;SDS011;31340;51.402;0.016;2023-05-18T01:38:25;13.60;;;4.25;;
44774;SDS011;31340;51.402;0.016;2023-05-18T01:43:35;17.67;;;4.20;;
44774;SDS011;31340;51.402;0.016;2023-05-18T01:46:06;13.50;;;4.63;;
44774;SDS011;31340;51.402;0.016;2023-05-18T01:48:40;12.15;;;3.72;;
44774;SDS011;31340;51.402;0.016;2023-05-18T01:51:12;14.63;;;3.55;;
44774;SDS011;31340;51.402;0.016;2023-05-18T01:53:42;13.93;;;4.05;;
44774;SDS011;31340;51.402;0.016;2023-05-18T01:56:17;19.35;;;3.92;;
44774;SDS011;31340;51.402;0.016;2023-05-18T01:58:47;11.10;;;4.07;;
44774;SDS011;31340;51.402;0.016;2023-05-18T02:01:16;17.95;;;5.18;;
44774;SDS011;31340;51.402;0.016;2023-05-18T02:03:46;14.68;;;4.95;;
44774;SDS011;31340;51.402;0.016;2023-05-18T02:06:14;11.98;;;4.18;;
44774;SDS011;31340;51.402;0.016;2023-05-18T02:08:42;16.17;;;4.85;;
44774;SDS011;31340;51.402;0.016;2023-05-18T02:11:10;13.73;;;3.58;;
44774;SDS011;31340;51.402;0.016;2023-05-18T02:13:38;13.80;;;4.07;;
44774;SDS011;31340;51.402;0.016;2023-05-18T02:16:06;17.02;;;4.45;;
44774;SDS011;31340;51.402;0.016;2023-05-18T02:18:34;19.33;;;4.38;;
44774;SDS011;31340;51.402;0.016;2023-05-18T02:21:02;13.95;;;4.30;;
44774;SDS011;31340;51.402;0.016;2023-05-18T02:23:31;15.13;;;4.10;;
44774;SDS011;31340;51.402;0.016;2023-05-18T02:26:00;13.75;;;3.65;;
44774;SDS011;31340;51.402;0.016;2023-05-18T02:28:28;17.48;;;4.97;;
44774;SDS011;31340;51.402;0.016;2023-05-18T02:31:09;11.88;;;3.88;;
44774;SDS011;31340;51.402;0.016;2023-05-18T02:33:38;18.52;;;3.83;;
44774;SDS011;31340;51.402;0.016;2023-05-18T02:36:07;21.52;;;4.75;;
44774;SDS011;31340;51.402;0.016;2023-05-18T02:38:41;15.63;;;3.97;;
44774;SDS011;31340;51.402;0.016;2023-05-18T02:41:11;14.93;;;4.70;;
44774;SDS011;31340;51.402;0.016;2023-05-18T02:43:39;15.07;;;4.28;;
44774;SDS011;31340;51.402;0.016;2023-05-18T02:46:07;25.38;;;5.07;;
44774;SDS011;31340;51.402;0.016;2023-05-18T02:48:35;18.65;;;5.30;;
44774;SDS011;31340;51.402;0.016;2023-05-18T02:51:03;12.73;;;4.28;;
44774;SDS011;31340;51.402;0.016;2023-05-18T02:53:32;18.08;;;4.55;;
44774;SDS011;31340;51.402;0.016;2023-05-18T02:56:06;18.23;;;4.55;;
44774;SDS011;31340;51.402;0.016;2023-05-18T02:58:43;15.43;;;4.55;;
44774;SDS011;31340;51.402;0.016;2023-05-18T03:01:21;19.02;;;4.38;;
44774;SDS011;31340;51.402;0.016;2023-05-18T03:03:53;17.33;;;5.10;;
44774;SDS011;31340;51.402;0.016;2023-05-18T03:08:54;9.60;;;3.92;;
44774;SDS011;31340;51.402;0.016;2023-05-18T03:11:30;14.82;;;4.63;;
44774;SDS011;31340;51.402;0.016;2023-05-18T03:13:58;15.57;;;4.20;;
44774;SDS011;31340;51.402;0.016;2023-05-18T03:16:27;19.83;;;4.03;;
44774;SDS011;31340;51.402;0.016;2023-05-18T03:18:56;12.35;;;3.92;;
44774;SDS011;31340;51.402;0.016;2023-05-18T03:21:29;15.13;;;4.70;;
44774;SDS011;31340;51.402;0.016;2023-05-18T03:24:01;14.40;;;4.88;;
44774;SDS011;31340;51.402;0.016;2023-05-18T03:26:31;17.25;;;3.80;;
44774;SDS011;31340;51.402;0.016;2023-05-18T03:28:59;11.85;;;4.55;;
44774;SDS011;31340;51.402;0.016;2023-05-18T03:31:28;14.50;;;4.43;;
44774;SDS011;31340;51.402;0.016;2023-05-18T03:33:58;14.98;;;3.83;;
44774;SDS011;31340;51.402;0.016;2023-05-18T03:36:26;15.63;;;4.45;;
44774;SDS011;31340;51.402;0.016;2023-05-18T03:38:55;8.80;;;3.88;;
44774;SDS011;31340;51.402;0.016;2023-05-18T03:41:23;11.95;;;4.20;;
44774;SDS011;31340;51.402;0.016;2023-05-18T03:43:53;13.75;;;4.22;;
44774;SDS011;31340;51.402;0.016;2023-05-18T03:46:22;15.23;;;4.32;;
44774;SDS011;31340;51.402;0.016;2023-05-18T03:48:50;14.10;;;4.45;;
44774;SDS011;31340;51.402;0.016;2023-05-18T03:51:24;13.70;;;3.60;;
44774;SDS011;31340;51.402;0.016;2023-05-18T03:53:53;15.57;;;4.15;;
44774;SDS011;31340;51.402;0.016;2023-05-18T03:56:20;16.17;;;4.05;;
44774;SDS011;31340;51.402;0.016;2023-05-18T03:58:49;16.70;;;3.88;;
44774;SDS011;31340;51.402;0.016;2023-05-18T04:01:17;18.42;;;4.25;;
44774;SDS011;31340;51.402;0.016;2023-05-18T04:03:45;13.15;;;3.80;;
44774;SDS011;31340;51.402;0.016;2023-05-18T04:06:13;15.35;;;4.03;;
44774;SDS011;31340;51.402;0.016;2023-05-18T04:08:40;12.13;;;3.40;;
44774;SDS011;31340;51.402;0.016;2023-05-18T04:11:09;15.88;;;4.35;;
44774;SDS011;31340;51.402;0.016;2023-05-18T04:13:39;14.02;;;4.07;;
44774;SDS011;31340;51.402;0.016;2023-05-18T04:16:07;10.77;;;3.85;;
44774;SDS011;31340;51.402;0.016;2023-05-18T04:18:40;13.80;;;4.38;;
44774;SDS011;31340;51.402;0.016;2023-05-18T04:21:08;12.88;;;3.50;;
44774;SDS011;31340;51.402;0.016;2023-05-18T04:23:35;11.95;;;3.60;;
44774;SDS011;31340;51.402;0.016;2023-05-18T04:26:06;14.63;;;3.83;;
44774;SDS011;31340;51.402;0.016;2023-05-18T04:28:35;13.13;;;4.25;;
44774;SDS011;31340;51.402;0.016;2023-05-18T04:31:05;15.13;;;3.88;;
44774;SDS011;31340;51.402;0.016;2023-05-18T04:33:33;16.60;;;3.90;;
44774;SDS011;31340;51.402;0.016;2023-05-18T04:36:01;14.25;;;4.15;;
44774;SDS011;31340;51.402;0.016;2023-05-18T04:38:34;16.57;;;3.77;;
44774;SDS011;31340;51.402;0.016;2023-05-18T04:43:34;16.17;;;3.88;;
44774;SDS011;31340;51.402;0.016;2023-05-18T04:46:02;14.18;;;3.75;;
44774;SDS011;31340;51.402;0.016;2023-05-18T04:48:33;9.35;;;3.58;;
44774;SDS011;31340;51.402;0.016;2023-05-18T04:51:03;11.93;;;3.92;;
44774;SDS011;31340;51.402;0.016;2023-05-18T04:53:32;13.05;;;3.28;;
44774;SDS011;31340;51.402;0.016;2023-05-18T04:56:00;11.90;;;3.45;;
44774;SDS011;31340;51.402;0.016;2023-05-18T04:58:27;12.23;;;4.07;;
44774;SDS011;31340;51.402;0.016;2023-05-18T05:00:56;10.73;;;3.92;;
44774;SDS011;31340;51.402;0.016;2023-05-18T05:03:24;15.20;;;3.58;;
44774;SDS011;31340;51.402;0.016;2023-05-18T05:05:53;11.98;;;3.45;;
44774;SDS011;31340;51.402;0.016;2023-05-18T05:08:21;12.07;;;4.20;;
44774;SDS011;31340;51.402;0.016;2023-05-18T05:10:49;17.63;;;3.88;;
44774;SDS011;31340;51.402;0.016;2023-05-18T05:13:16;16.58;;;4.30;;
44774;SDS011;31340;51.402;0.016;2023-05-18T05:15:44;12.45;;;3.78;;
44774;SDS011;31340;51.402;0.016;2023-05-18T05:18:11;10.88;;;3.65;;
44774;SDS011;31340;51.402;0.016;2023-05-18T05:20:39;11.77;;;3.83;;
44774;SDS011;31340;51.402;0.016;2023-05-18T05:23:07;11.30;;;4.20;;
44774;SDS011;31340;51.402;0.016;2023-05-18T05:25:38;12.32;;;4.20;;
44774;SDS011;31340;51.402;0.016;2023-05-18T05:28:06;13.70;;;4.10;;
44774;SDS011;31340;51.402;0.016;2023-05-18T05:30:35;11.95;;;3.90;;
44774;SDS011;31340;51.402;0.016;2023-05-18T05:33:02;8.13;;;3.53;;
44774;SDS011;31340;51.402;0.016;2023-05-18T05:35:30;13.02;;;3.13;;
44774;SDS011;31340;51.402;0.016;2023-05-18T05:38:00;10.10;;;3.47;;
44774;SDS011;31340;51.402;0.016;2023-05-18T05:40:29;12.52;;;3.58;;
44774;SDS011;31340;51.402;0.016;2023-05-18T05:42:57;17.20;;;4.07;;
44774;SDS011;31340;51.402;0.016;2023-05-18T05:45:25;12.93;;;4.03;;
44774;SDS011;31340;51.402;0.016;2023-05-18T05:47:57;14.82;;;3.78;;
44774;SDS011;31340;51.402;0.016;2023-05-18T05:50:25;17.13;;;4.45;;
44774;SDS011;31340;51.402;0.016;2023-05-18T05:52:56;16.42;;;4.35;;
44774;SDS011;31340;51.402;0.016;2023-05-18T05:55:25;10.95;;;4.10;;
44774;SDS011;31340;51.402;0.016;2023-05-18T05:57:53;11.35;;;4.25;;
44774;SDS011;31340;51.402;0.016;2023-05-18T06:00:21;8.77;;;3.85;;
44774;SDS011;31340;51.402;0.016;2023-05-18T06:02:54;13.07;;;4.65;;
44774;SDS011;31340;51.402;0.016;2023-05-18T06:05:31;16.67;;;3.92;;
44774;SDS011;31340;51.402;0.016;2023-05-18T06:08:00;15.60;;;4.10;;
44774;SDS011;31340;51.402;0.016;2023-05-18T06:10:28;16.08;;;5.35;;
44774;SDS011;31340;51.402;0.016;2023-05-18T06:12:57;12.80;;;4.50;;
44774;SDS011;31340;51.402;0.016;2023-05-18T06:15:33;16.00;;;5.50;;
44774;SDS011;31340;51.402;0.016;2023-05-18T06:18:00;14.45;;;3.88;;
44774;SDS011;31340;51.402;0.016;2023-05-18T06:20:29;14.93;;;4.55;;
44774;SDS011;31340;51.402;0.016;2023-05-18T06:22:57;15.27;;;5.05;;
44774;SDS011;31340;51.402;0.016;2023-05-18T06:25:42;16.30;;;5.22;;
44774;SDS011;31340;51.402;0.016;2023-05-18T06:28:20;13.13;;;5.20;;
44774;SDS011;31340;51.402;0.016;2023-05-18T06:30:58;13.73;;;4.22;;
44774;SDS011;31340;51.402;0.016;2023-05-18T06:33:41;14.07;;;4.00;;
44774;SDS011;31340;51.402;0.016;2023-05-18T06:36:09;11.00;;;4.13;;
44774;SDS011;31340;51.402;0.016;2023-05-18T06:38:37;16.10;;;4.25;;
44774;SDS011;31340;51.402;0.016;2023-05-18T06:41:04;17.75;;;4.45;;
44774;SDS011;31340;51.402;0.016;2023-05-18T06:43:32;21.42;;;4.22;;
44774;SDS011;31340;51.402;0.016;2023-05-18T06:46:20;18.63;;;5.03;;
44774;SDS011;31340;51.402;0.016;2023-05-18T06:48:56;16.88;;;5.15;;
44774;SDS011;31340;51.402;0.016;2023-05-18T06:51:24;16.35;;;4.13;;
44774;SDS011;31340;51.402;0.016;2023-05-18T06:53:53;16.33;;;4.80;;
44774;SDS011;31340;51.402;0.016;2023-05-18T06:56:22;16.02;;;4.88;;
44774;SDS011;31340;51.402;0.016;2023-05-18T06:58:51;17.10;;;4.55;;
44774;SDS011;31340;51.402;0.016;2023-05-18T07:01:19;24.13;;;5.90;;
44774;SDS011;31340;51.402;0.016;2023-05-18T07:03:47;14.65;;;4.18;;
44774;SDS011;31340;51.402;0.016;2023-05-18T07:06:14;17.55;;;4.32;;
44774;SDS011;31340;51.402;0.016;2023-05-18T07:08:43;13.15;;;4.00;;
44774;SDS011;31340;51.402;0.016;2023-05-18T07:11:11;20.25;;;3.97;;
44774;SDS011;31340;51.402;0.016;2023-05-18T07:13:39;12.65;;;3.97;;
44774;SDS011;31340;51.402;0.016;2023-05-18T07:16:06;13.60;;;4.60;;
44774;SDS011;31340;51.402;0.016;2023-05-18T07:18:34;15.48;;;3.95;;
44774;SDS011;31340;51.402;0.016;2023-05-18T07:21:02;14.20;;;3.80;;
44774;SDS011;31340;51.402;0.016;2023-05-18T07:23:30;21.42;;;5.20;;
44774;SDS011;31340;51.402;0.016;2023-05-18T07:25:58;14.18;;;4.00;;
44774;SDS011;31340;51.402;0.016;2023-05-18T07:28:25;13.10;;;3.58;;
44774;SDS011;31340;51.402;0.016;2023-05-18T07:30:53;11.77;;;3.05;;
44774;SDS011;31340;51.402;0.016;2023-05-18T07:33:21;11.02;;;2.53;;
44774;SDS011;31340;51.402;0.016;2023-05-18T07:35:48;11.55;;;3.35;;
44774;SDS011;31340;51.402;0.016;2023-05-18T07:38:16;15.55;;;2.90;;
44774;SDS011;31340;51.402;0.016;2023-05-18T07:40:44;12.25;;;3.47;;
44774;SDS011;31340;51.402;0.016;2023-05-18T07:43:11;14.02;;;3.28;;
44774;SDS011;31340;51.402;0.016;2023-05-18T07:45:39;17.63;;;2.70;;
44774;SDS011;31340;51.402;0.016;2023-05-18T07:48:06;16.10;;;3.25;;
44774;SDS011;31340;51.402;0.016;2023-05-18T07:50:34;11.38;;;3.05;;
44774;SDS011;31340;51.402;0.016;2023-05-18T07:53:01;11.98;;;2.95;;
44774;SDS011;31340;51.402;0.016;2023-05-18T07:55:29;13.95;;;3.15;;
44774;SDS011;31340;51.402;0.016;2023-05-18T07:57:58;11.13;;;2.70;;
44774;SDS011;31340;51.402;0.016;2023-05-18T08:00:27;13.60;;;3.95;;
44774;SDS011;31340;51.402;0.016;2023-05-18T08:02:55;13.70;;;3.28;;
44774;SDS011;31340;51.402;0.016;2023-05-18T08:05:23;19.98;;;4.43;;
44774;SDS011;31340;51.402;0.016;2023-05-18T08:07:51;15.07;;;4.55;;
44774;SDS011;31340;51.402;0.016;2023-05-18T08:10:18;14.18;;;3.20;;
44774;SDS011;31340;51.402;0.016;2023-05-18T08:12:47;12.68;;;2.92;;
44774;SDS011;31340;51.402;0.016;2023-05-18T08:15:14;8.43;;;2.40;;
44774;SDS011;31340;51.402;0.016;2023-05-18T08:17:42;13.30;;;2.95;;
44774;SDS011;31340;51.402;0.016;2023-05-18T08:20:09;15.57;;;2.83;;
44774;SDS011;31340;51.402;0.016;2023-05-18T08:22:37;15.75;;;3.15;;
44774;SDS011;31340;51.402;0.016;2023-05-18T08:25:05;15.98;;;3.80;;
44774;SDS011;31340;51.402;0.016;2023-05-18T08:27:33;15.65;;;3.72;;
44774;SDS011;31340;51.402;0.016;2023-05-18T08:30:01;16.83;;;3.70;;
44774;SDS011;31340;51.402;0.016;2023-05-18T08:32:30;15.02;;;3.40;;
44774;SDS011;31340;51.402;0.016;2023-05-18T08:34:58;13.90;;;4.30;;
44774;SDS011;31340;51.402;0.016;2023-05-18T08:37:26;8.93;;;3.20;;
44774;SDS011;31340;51.402;0.016;2023-05-18T08:39:55;20.92;;;4.60;;
44774;SDS011;31340;51.402;0.016;2023-05-18T08:42:29;14.57;;;3.80;;
44774;SDS011;31340;51.402;0.016;2023-05-18T08:46:03;15.57;;;4.40;;
44774;SDS011;31340;51.402;0.016;2023-05-18T08:48:09;49.17;;;6.28;;
44774;SDS011;31340;51.402;0.016;2023-05-18T08:50:37;15.70;;;5.07;;
44774;SDS011;31340;51.402;0.016;2023-05-18T08:53:09;15.65;;;4.43;;
44774;SDS011;31340;51.402;0.016;2023-05-18T08:55:40;18.83;;;4.70;;
44774;SDS011;31340;51.402;0.016;2023-05-18T08:58:09;15.20;;;3.80;;
44774;SDS011;31340;51.402;0.016;2023-05-18T09:00:42;17.63;;;4.55;;
44774;SDS011;31340;51.402;0.016;2023-05-18T09:03:10;16.25;;;4.80;;
44774;SDS011;31340;51.402;0.016;2023-05-18T09:05:40;19.08;;;5.20;;
44774;SDS011;31340;51.402;0.016;2023-05-18T09:08:08;19.17;;;5.95;;
44774;SDS011;31340;51.402;0.016;2023-05-18T09:10:36;16.55;;;4.78;;
44774;SDS011;31340;51.402;0.016;2023-05-18T09:13:05;17.60;;;5.47;;
44774;SDS011;31340;51.402;0.016;2023-05-18T09:15:35;16.00;;;4.63;;
44774;SDS011;31340;51.402;0.016;2023-05-18T09:18:03;21.55;;;5.72;;
44774;SDS011;31340;51.402;0.016;2023-05-18T09:20:32;23.55;;;5.60;;
44774;SDS011;31340;51.402;0.016;2023-05-18T09:22:59;20.65;;;5.22;;
44774;SDS011;31340;51.402;0.016;2023-05-18T09:25:28;18.15;;;6.03;;
44774;SDS011;31340;51.402;0.016;2023-05-18T09:28:01;14.27;;;4.45;;
44774;SDS011;31340;51.402;0.016;2023-05-18T09:30:31;12.25;;;4.47;;
44774;SDS011;31340;51.402;0.016;2023-05-18T09:33:14;16.65;;;4.35;;
44774;SDS011;31340;51.402;0.016;2023-05-18T09:35:43;13.57;;;4.28;;
44774;SDS011;31340;51.402;0.016;2023-05-18T09:38:15;15.43;;;4.47;;
44774;SDS011;31340;51.402;0.016;2023-05-18T09:40:48;18.15;;;5.28;;
44774;SDS011;31340;51.402;0.016;2023-05-18T09:43:16;12.45;;;4.68;;
44774;SDS011;31340;51.402;0.016;2023-05-18T09:45:47;17.23;;;5.18;;
44774;SDS011;31340;51.402;0.016;2023-05-18T09:48:15;16.10;;;4.65;;
44774;SDS011;31340;51.402;0.016;2023-05-18T09:50:43;22.17;;;5.32;;
44774;SDS011;31340;51.402;0.016;2023-05-18T09:53:12;20.02;;;4.60;;
44774;SDS011;31340;51.402;0.016;2023-05-18T09:55:44;19.05;;;6.30;;
44774;SDS011;31340;51.402;0.016;2023-05-18T09:58:14;14.13;;;4.50;;
44774;SDS011;31340;51.402;0.016;2023-05-18T10:00:46;16.55;;;4.72;;
44774;SDS011;31340;51.402;0.016;2023-05-18T10:03:20;17.45;;;4.75;;
44774;SDS011;31340;51.402;0.016;2023-05-18T10:05:50;15.88;;;4.68;;
44774;SDS011;31340;51.402;0.016;2023-05-18T10:08:18;16.90;;;4.30;;
44774;SDS011;31340;51.402;0.016;2023-05-18T10:10:46;16.05;;;5.07;;
44774;SDS011;31340;51.402;0.016;2023-05-18T10:13:16;19.17;;;6.93;;
44774;SDS011;31340;51.402;0.016;2023-05-18T10:15:46;9.35;;;4.30;;
44774;SDS011;31340;51.402;0.016;2023-05-18T10:18:20;16.27;;;5.57;;
44774;SDS011;31340;51.402;0.016;2023-05-18T10:20:56;13.75;;;4.30;;
44774;SDS011;31340;51.402;0.016;2023-05-18T10:25:56;13.07;;;4.57;;
44774;SDS011;31340;51.402;0.016;2023-05-18T10:28:26;21.80;;;5.53;;
44774;SDS011;31340;51.402;0.016;2023-05-18T10:30:57;12.48;;;4.72;;
44774;SDS011;31340;51.402;0.016;2023-05-18T10:33:27;11.57;;;5.03;;
44774;SDS011;31340;51.402;0.016;2023-05-18T10:35:56;17.88;;;4.43;;
44774;SDS011;31340;51.402;0.016;2023-05-18T10:38:25;13.10;;;5.20;;
44774;SDS011;31340;51.402;0.016;2023-05-18T10:40:55;10.50;;;4.15;;
44774;SDS011;31340;51.402;0.016;2023-05-18T10:43:27;10.68;;;4.55;;
44774;SDS011;31340;51.402;0.016;2023-05-18T10:45:55;13.77;;;3.50;;
44774;SDS011;31340;51.402;0.016;2023-05-18T10:48:26;10.68;;;3.58;;
44774;SDS011;31340;51.402;0.016;2023-05-18T10:50:56;12.88;;;4.20;;
44774;SDS011;31340;51.402;0.016;2023-05-18T10:53:25;10.57;;;3.97;;
44774;SDS011;31340;51.402;0.016;2023-05-18T10:58:24;11.60;;;4.05;;
44774;SDS011;31340;51.402;0.016;2023-05-18T11:00:54;12.40;;;4.18;;
44774;SDS011;31340;51.402;0.016;2023-05-18T11:03:29;11.43;;;3.95;;
44774;SDS011;31340;51.402;0.016;2023-05-18T11:06:06;13.35;;;3.97;;
44774;SDS011;31340;51.402;0.016;2023-05-18T11:11:13;10.50;;;4.32;;
44774;SDS011;31340;51.402;0.016;2023-05-18T11:13:49;11.43;;;3.83;;
44774;SDS011;31340;51.402;0.016;2023-05-18T11:16:18;9.52;;;3.45;;
44774;SDS011;31340;51.402;0.016;2023-05-18T11:18:48;9.47;;;4.00;;
44774;SDS011;31340;51.402;0.016;2023-05-18T11:26:43;11.55;;;4.18;;
44774;SDS011;31340;51.402;0.016;2023-05-18T11:29:23;9.55;;;3.40;;
44774;SDS011;31340;51.402;0.016;2023-05-18T11:31:53;10.85;;;3.90;;
44774;SDS011;31340;51.402;0.016;2023-05-18T11:37:16;12.18;;;3.55;;
44774;SDS011;31340;51.402;0.016;2023-05-18T11:40:04;11.43;;;3.17;;
44774;SDS011;31340;51.402;0.016;2023-05-18T11:42:37;10.50;;;3.22;;
44774;SDS011;31340;51.402;0.016;2023-05-18T11:45:08;10.73;;;3.25;;
44774;SDS011;31340;51.402;0.016;2023-05-18T11:47:38;8.32;;;3.38;;
44774;SDS011;31340;51.402;0.016;2023-05-18T11:50:10;15.07;;;3.35;;
44774;SDS011;31340;51.402;0.016;2023-05-18T11:52:50;9.85;;;3.15;;
44774;SDS011;31340;51.402;0.016;2023-05-18T11:55:19;13.23;;;3.75;;
44774;SDS011;31340;51.402;0.016;2023-05-18T11:57:47;7.68;;;2.97;;
44774;SDS011;31340;51.402;0.016;2023-05-18T12:00:18;8.95;;;3.35;;
44774;SDS011;31340;51.402;0.016;2023-05-18T12:02:47;7.65;;;2.95;;
44774;SDS011;31340;51.402;0.016;2023-05-18T12:05:15;8.95;;;3.05;;
44774;SDS011;31340;51.402;0.016;2023-05-18T12:07:43;11.25;;;2.90;;
44774;SDS011;31340;51.402;0.016;2023-05-18T12:10:18;10.90;;;2.85;;
44774;SDS011;31340;51.402;0.016;2023-05-18T12:12:48;10.07;;;3.13;;
44774;SDS011;31340;51.402;0.016;2023-05-18T12:15:20;7.88;;;3.92;;
44774;SDS011;31340;51.402;0.016;2023-05-18T12:17:50;13.65;;;3.95;;
44774;SDS011;31340;51.402;0.016;2023-05-18T12:20:19;8.73;;;3.13;;
44774;SDS011;31340;51.402;0.016;2023-05-18T12:22:49;11.85;;;3.28;;
44774;SDS011;31340;51.402;0.016;2023-05-18T12:25:19;8.82;;;3.28;;
44774;SDS011;31340;51.402;0.016;2023-05-18T12:27:50;10.43;;;3.22;;
44774;SDS011;31340;51.402;0.016;2023-05-18T12:30:19;8.45;;;2.88;;
44774;SDS011;31340;51.402;0.016;2023-05-18T12:32:52;10.32;;;3.30;;
44774;SDS011;31340;51.402;0.016;2023-05-18T12:35:22;9.02;;;3.92;;
44774;SDS011;31340;51.402;0.016;2023-05-18T12:37:54;11.95;;;3.38;;
44774;SDS011;31340;51.402;0.016;2023-05-18T12:40:24;10.57;;;3.25;;
44774;SDS011;31340;51.402;0.016;2023-05-18T12:42:59;8.60;;;3.72;;
44774;SDS011;31340;51.402;0.016;2023-05-18T12:45:28;9.50;;;3.92;;
44774;SDS011;31340;51.402;0.016;2023-05-18T12:48:04;10.25;;;3.65;;
44774;SDS011;31340;51.402;0.016;2023-05-18T12:50:32;8.85;;;3.67;;
44774;SDS011;31340;51.402;0.016;2023-05-18T12:53:00;12.00;;;3.25;;
44774;SDS011;31340;51.402;0.016;2023-05-18T12:55:28;9.65;;;3.72;;
44774;SDS011;31340;51.402;0.016;2023-05-18T13:00:34;9.27;;;3.23;;
44774;SDS011;31340;51.402;0.016;2023-05-18T13:03:04;11.05;;;3.30;;
44774;SDS011;31340;51.402;0.016;2023-05-18T13:05:42;9.15;;;3.65;;
44774;SDS011;31340;51.402;0.016;2023-05-18T13:08:12;8.57;;;3.33;;
44774;SDS011;31340;51.402;0.016;2023-05-18T13:10:42;8.32;;;3.05;;
44774;SDS011;31340;51.402;0.016;2023-05-18T13:13:13;13.35;;;4.07;;
44774;SDS011;31340;51.402;0.016;2023-05-18T13:15:42;7.75;;;3.35;;
44774;SDS011;31340;51.402;0.016;2023-05-18T13:18:10;13.68;;;4.47;;
44774;SDS011;31340;51.402;0.016;2023-05-18T13:20:39;9.88;;;4.03;;
44774;SDS011;31340;51.402;0.016;2023-05-18T13:23:11;8.85;;;3.58;;
44774;SDS011;31340;51.402;0.016;2023-05-18T13:25:40;5.97;;;3.03;;
44774;SDS011;31340;51.402;0.016;2023-05-18T13:28:09;12.13;;;3.60;;
44774;SDS011;31340;51.402;0.016;2023-05-18T13:30:38;11.95;;;2.97;;
44774;SDS011;31340;51.402;0.016;2023-05-18T13:33:08;7.45;;;3.45;;
44774;SDS011;31340;51.402;0.016;2023-05-18T13:35:37;9.20;;;3.17;;
44774;SDS011;31340;51.402;0.016;2023-05-18T13:38:08;9.55;;;3.15;;
44774;SDS011;31340;51.402;0.016;2023-05-18T13:40:37;8.55;;;2.88;;
44774;SDS011;31340;51.402;0.016;2023-05-18T13:43:05;9.70;;;3.42;;
44774;SDS011;31340;51.402;0.016;2023-05-18T13:45:34;14.55;;;4.18;;
44774;SDS011;31340;51.402;0.016;2023-05-18T13:48:03;10.82;;;3.40;;
44774;SDS011;31340;51.402;0.016;2023-05-18T13:50:35;12.73;;;3.85;;
44774;SDS011;31340;51.402;0.016;2023-05-18T13:53:03;8.90;;;3.05;;
44774;SDS011;31340;51.402;0.016;2023-05-18T13:55:32;12.25;;;3.47;;
44774;SDS011;31340;51.402;0.016;2023-05-18T13:58:00;11.02;;;3.15;;
44774;SDS011;31340;51.402;0.016;2023-05-18T14:00:27;11.48;;;3.38;;
44774;SDS011;31340;51.402;0.016;2023-05-18T14:02:55;10.35;;;3.40;;
44774;SDS011;31340;51.402;0.016;2023-05-18T14:05:23;12.88;;;3.63;;
44774;SDS011;31340;51.402;0.016;2023-05-18T14:07:50;10.23;;;3.33;;
44774;SDS011;31340;51.402;0.016;2023-05-18T14:10:18;10.93;;;4.28;;
44774;SDS011;31340;51.402;0.016;2023-05-18T14:12:47;9.00;;;3.53;;
44774;SDS011;31340;51.402;0.016;2023-05-18T14:15:15;16.05;;;4.57;;
44774;SDS011;31340;51.402;0.016;2023-05-18T14:17:42;7.30;;;3.10;;
44774;SDS011;31340;51.402;0.016;2023-05-18T14:20:10;8.93;;;3.30;;
44774;SDS011;31340;51.402;0.016;2023-05-18T14:22:39;5.78;;;2.83;;
44774;SDS011;31340;51.402;0.016;2023-05-18T14:25:06;10.07;;;3.58;;
44774;SDS011;31340;51.402;0.016;2023-05-18T14:27:34;7.85;;;3.17;;
44774;SDS011;31340;51.402;0.016;2023-05-18T14:30:02;9.70;;;3.28;;
44774;SDS011;31340;51.402;0.016;2023-05-18T14:32:32;8.43;;;3.20;;
44774;SDS011;31340;51.402;0.016;2023-05-18T14:35:00;8.85;;;3.50;;
44774;SDS011;31340;51.402;0.016;2023-05-18T14:37:27;7.25;;;3.22;;
44774;SDS011;31340;51.402;0.016;2023-05-18T14:39:55;12.77;;;3.53;;
44774;SDS011;31340;51.402;0.016;2023-05-18T14:42:22;10.43;;;3.55;;
44774;SDS011;31340;51.402;0.016;2023-05-18T14:44:50;11.88;;;3.88;;
44774;SDS011;31340;51.402;0.016;2023-05-18T14:47:18;8.30;;;3.40;;
44774;SDS011;31340;51.402;0.016;2023-05-18T14:49:45;10.60;;;3.25;;
44774;SDS011;31340;51.402;0.016;2023-05-18T14:52:13;10.15;;;3.20;;
44774;SDS011;31340;51.402;0.016;2023-05-18T14:54:40;11.00;;;3.70;;
44774;SDS011;31340;51.402;0.016;2023-05-18T14:57:08;8.75;;;3.10;;
44774;SDS011;31340;51.402;0.016;2023-05-18T14:59:36;8.35;;;3.03;;
44774;SDS011;31340;51.402;0.016;2023-05-18T15:02:04;9.75;;;3.08;;
44774;SDS011;31340;51.402;0.016;2023-05-18T15:04:33;10.82;;;4.15;;
44774;SDS011;31340;51.402;0.016;2023-05-18T15:07:01;4.95;;;2.63;;
44774;SDS011;31340;51.402;0.016;2023-05-18T15:09:30;10.00;;;3.13;;
44774;SDS011;31340;51.402;0.016;2023-05-18T15:11:57;8.18;;;3.45;;
44774;SDS011;31340;51.402;0.016;2023-05-18T15:14:25;5.75;;;3.00;;
44774;SDS011;31340;51.402;0.016;2023-05-18T15:16:52;6.68;;;3.03;;
44774;SDS011;31340;51.402;0.016;2023-05-18T15:19:20;9.75;;;3.30;;
44774;SDS011;31340;51.402;0.016;2023-05-18T15:21:47;9.30;;;3.33;;
44774;SDS011;31340;51.402;0.016;2023-05-18T15:24:14;7.05;;;3.38;;
44774;SDS011;31340;51.402;0.016;2023-05-18T15:26:42;10.43;;;3.42;;
44774;SDS011;31340;51.402;0.016;2023-05-18T15:29:10;6.88;;;2.95;;
44774;SDS011;31340;51.402;0.016;2023-05-18T15:31:39;10.02;;;3.38;;